XK104 / F-GRPI 7700 Squawk Report (19th of July, 2020)

Aircraft AT75 Reg No. F-GRPI Age 14 years old
Model ATR 72 Turboprop engines 2 First flight 06-12-05
Registered 18-12-15 Rollout 11-05 Delivered 13-12-05
Construction No. 722 Line No. N/A Series 212A
ADSHEX 3945E8 Airline name Air Corsica Owner N/A
Airfield based Ajaccio~Corse du Sud~F First tracked N/A

Flight history for F-GRPI

Route Flight No Date Playback
Cote D Azur (NCE) - Poretta (BIA) XK205 2020-08-08 19:48:00
Poretta (BIA) - Cote D Azur (NCE) XK206 2020-08-08 19:13:00
Provence (MRS) - Poretta (BIA) XK255 2020-08-08 16:41:00
Sud Corse (FSC) - Provence (MRS) XK590 2020-08-08 15:50:00
???? N/A 2020-08-08 13:22:00
Sud Corse (FSC) - Cote D Azur (NCE) XK582 2020-08-08 10:20:00
Provence (MRS) - Sud Corse (FSC) XK451 2020-08-08 09:31:00
Sud Corse (FSC) - Provence (MRS) XK450 2020-08-08 06:10:00
Provence (MRS) - Sud Corse (FSC) XK457 2020-08-08 05:10:00
Sud Corse (FSC) - Provence (MRS) XK456 2020-08-07 17:36:00
???? N/A 2020-08-07 15:58:00
???? N/A 2020-08-07 15:04:00
Cote D Azur (NCE) - Sud Corse (FSC) XK401 2020-08-07 10:58:00
Saint Catherine (CLY) - Cote D Azur (NCE) XK310 2020-08-07 09:35:00
Provence (MRS) - Saint Catherine (CLY) XK351 2020-08-07 08:29:00
Saint Catherine (CLY) - Provence (MRS) XK350 2020-08-07 07:03:00
Provence (MRS) - Saint Catherine (CLY) XK355 2020-08-06 18:44:00
Saint Catherine (CLY) - Provence (MRS) XK354 2020-08-06 17:13:00
???? N/A 2020-08-06 15:37:00
Campo Dell Oro (AJA) - Saint Exupery (LYS) XK130 2020-08-06 14:16:00
Time Lat Lon Altitude Heading Speed Vertical Rate
2020-07-19 15:17:38 GMT 43.663021 7.206966 0 278 12 0
2020-07-19 15:17:35 GMT 43.662998 7.207223 0 292 12 0
2020-07-19 15:17:15 GMT 43.662025 7.207766 0 348 17 0
2020-07-19 15:16:54 GMT 43.660275 7.208159 0 351 18 0
2020-07-19 15:16:46 GMT 43.659702 7.208290 0 348 17 0
2020-07-19 15:16:37 GMT 43.659050 7.208436 0 348 16 0
2020-07-19 15:16:30 GMT 43.658504 7.208552 0 348 15 0
2020-07-19 15:16:21 GMT 43.658005 7.208682 0 348 15 0
2020-07-19 15:16:18 GMT 43.657806 7.208715 0 351 13 0
2020-07-19 15:16:09 GMT 43.657444 7.208797 0 345 0 0
2020-07-19 15:15:58 GMT 43.657436 7.208804 0 345 0 0
2020-07-19 15:15:52 GMT 43.657433 7.208813 0 345 0 0
2020-07-19 15:15:40 GMT 43.657413 7.208820 0 345 2 0
2020-07-19 15:15:36 GMT 43.657379 7.208836 0 348 2 0
2020-07-19 15:15:30 GMT 43.657322 7.208852 0 348 4 0
2020-07-19 15:15:27 GMT 43.657207 7.208868 0 348 9 0
2020-07-19 15:15:22 GMT 43.657040 7.208911 0 345 12 0
2020-07-19 15:15:16 GMT 43.656666 7.209026 0 326 15 0
2020-07-19 15:15:10 GMT 43.656387 7.209402 0 292 17 0
2020-07-19 15:15:06 GMT 43.656315 7.209874 0 258 18 0
2020-07-19 15:15:00 GMT 43.656521 7.210528 0 227 25 0
2020-07-19 15:14:54 GMT 43.657001 7.211183 0 222 33 0
2020-07-19 15:14:50 GMT 43.657585 7.211969 0 222 44 0
2020-07-19 15:14:44 GMT 43.658649 7.213435 0 225 58 0
2020-07-19 15:14:39 GMT 43.659657 7.214824 0 225 65 0
2020-07-19 15:14:34 GMT 43.660740 7.216317 0 225 76 0
2020-07-19 15:14:31 GMT 43.661320 7.217102 0 222 82 0
2020-07-19 15:14:28 GMT 43.662182 7.218296 -50 225 92 0
2020-07-19 15:14:24 GMT 43.663811 7.220503 -50 225 98 0
2020-07-19 15:14:21 GMT 43.664520 7.221467 -50 225 104 0
2020-07-19 15:14:11 GMT 43.668049 7.226388 0 225 110 -512
2020-07-19 15:14:03 GMT 43.671112 7.230601 100 225 110 -640
2020-07-19 15:13:56 GMT 43.673309 7.233667 175 226 113 -640
2020-07-19 15:13:51 GMT 43.675507 7.236669 250 224 112 -768
2020-07-19 15:13:40 GMT 43.679455 7.241952 375 226 113 -704
2020-07-19 15:13:30 GMT 43.683060 7.247080 450 227 113 -576
2020-07-19 15:13:25 GMT 43.684891 7.249763 525 228 114 -768
2020-07-19 15:13:18 GMT 43.687878 7.254377 650 233 122 -896
2020-07-19 15:13:10 GMT 43.689880 7.259089 725 253 127 -256
2020-07-19 15:13:07 GMT 43.690346 7.261440 725 265 129 -256
2020-07-19 15:12:57 GMT 43.689651 7.269372 750 294 133 -640
2020-07-19 15:12:47 GMT 43.686630 7.277484 800 300 140 -448
2020-07-19 15:12:37 GMT 43.683197 7.285405 900 302 143 -448
2020-07-19 15:12:29 GMT 43.680222 7.292239 950 301 141 -128
2020-07-19 15:12:17 GMT 43.676380 7.301134 975 301 141 64
2020-07-19 15:12:07 GMT 43.672989 7.308974 950 302 137 -448
2020-07-19 15:11:56 GMT 43.669628 7.316371 1,000 303 136 -384
2020-07-19 15:11:46 GMT 43.665985 7.324048 1,075 304 137 -256
2020-07-19 15:11:36 GMT 43.662231 7.331458 1,175 306 142 -512
2020-07-19 15:11:26 GMT 43.658550 7.338802 1,275 305 144 -960
2020-07-19 15:11:14 GMT 43.653942 7.348022 1,475 305 141 -832
2020-07-19 15:11:05 GMT 43.650833 7.354069 1,575 306 139 -896
2020-07-19 15:10:54 GMT 43.646355 7.362802 1,775 305 147 -960
2020-07-19 15:10:46 GMT 43.643097 7.369399 1,900 305 149 -832
2020-07-19 15:10:35 GMT 43.639233 7.377319 2,025 304 146 -768
2020-07-19 15:10:25 GMT 43.635277 7.385298 2,150 306 139 -704
2020-07-19 15:10:15 GMT 43.631470 7.392649 2,275 306 146 -896
2020-07-19 15:10:04 GMT 43.626896 7.401450 2,450 306 158 -704
2020-07-19 15:09:55 GMT 43.622818 7.409256 2,525 307 167 -832
2020-07-19 15:09:45 GMT 43.618141 7.417864 2,675 307 173 -832
2020-07-19 15:09:35 GMT 43.613297 7.427013 2,825 306 179 -960
2020-07-19 15:09:24 GMT 43.607895 7.437489 2,950 305 178 -64
2020-07-19 15:09:14 GMT 43.603409 7.446303 2,950 306 172 0
2020-07-19 15:09:04 GMT 43.598877 7.455182 2,950 305 176 -64
2020-07-19 15:08:54 GMT 43.594299 7.464507 2,950 304 179 -64
2020-07-19 15:08:43 GMT 43.589584 7.474472 2,950 303 175 0
2020-07-19 15:08:33 GMT 43.584858 7.484109 2,950 309 180 64
2020-07-19 15:08:23 GMT 43.579178 7.492349 2,950 321 191 0
2020-07-19 15:08:13 GMT 43.571171 7.499935 2,950 328 201 -64
2020-07-19 15:08:03 GMT 43.563309 7.506920 2,950 328 203 0
2020-07-19 15:07:53 GMT 43.555252 7.514074 2,950 328 203 64
2020-07-19 15:07:42 GMT 43.547104 7.521384 2,950 328 202 0
2020-07-19 15:07:32 GMT 43.539230 7.528317 2,950 328 202 0
2020-07-19 15:07:22 GMT 43.531418 7.535248 2,950 328 201 -64
2020-07-19 15:07:13 GMT 43.523548 7.542049 2,950 329 200 64
2020-07-19 15:07:02 GMT 43.515106 7.549204 2,950 329 210 -64
2020-07-19 15:06:52 GMT 43.506409 7.556741 2,950 328 213 0
2020-07-19 15:06:41 GMT 43.497711 7.564218 2,950 328 215 0
2020-07-19 15:06:32 GMT 43.489563 7.571305 2,950 328 215 0
2020-07-19 15:06:21 GMT 43.480820 7.578970 2,950 328 215 0
2020-07-19 15:06:12 GMT 43.472397 7.586379 2,950 328 216 0
2020-07-19 15:06:01 GMT 43.463837 7.593980 2,950 327 216 0
2020-07-19 15:05:51 GMT 43.455536 7.601558 2,950 327 214 0
2020-07-19 15:05:41 GMT 43.447037 7.609118 2,975 328 214 -192
2020-07-19 15:05:30 GMT 43.437607 7.617358 3,100 328 224 -1408
2020-07-19 15:05:20 GMT 43.429234 7.624773 3,350 328 229 -1536
2020-07-19 15:05:10 GMT 43.419662 7.633135 3,600 328 232 -1408
2020-07-19 15:04:59 GMT 43.410007 7.641449 3,875 329 240 -1536
2020-07-19 15:04:51 GMT 43.402096 7.648185 4,075 329 246 -1472
2020-07-19 15:04:48 GMT 43.398975 7.650800 4,150 329 253 -1664
2020-07-19 15:04:39 GMT 43.390549 7.657918 4,375 329 257 -1792
2020-07-19 15:04:28 GMT 43.379288 7.667563 4,650 328 263 -1664
2020-07-19 15:04:19 GMT 43.369461 7.675977 4,925 328 264 -1728
2020-07-19 15:04:10 GMT 43.360565 7.683659 5,175 328 266 -1472
2020-07-19 15:04:00 GMT 43.349442 7.693304 5,450 328 270 -1536
2020-07-19 15:03:57 GMT 43.347244 7.695220 5,500 328 270 -1472
2020-07-19 15:03:50 GMT 43.338924 7.702462 5,725 328 269 -1472
2020-07-19 15:03:46 GMT 43.335205 7.705759 5,800 328 267 -1536
2020-07-19 15:03:40 GMT 43.328358 7.711683 6,000 328 266 -1472
2020-07-19 15:03:36 GMT 43.325146 7.714495 6,025 328 265 -1472
2020-07-19 15:03:26 GMT 43.314240 7.723836 6,300 329 268 -1408
2020-07-19 15:03:19 GMT 43.306850 7.730059 6,475 329 272 -1536
2020-07-19 15:03:16 GMT 43.303162 7.733161 6,475 329 272 -1536
2020-07-19 15:03:08 GMT 43.294418 7.740653 6,750 328 276 -1536
2020-07-19 15:03:05 GMT 43.291950 7.742811 6,825 328 274 -1536
2020-07-19 15:02:58 GMT 43.283890 7.749705 7,000 328 268 -1536
2020-07-19 15:02:55 GMT 43.281143 7.752068 7,075 328 265 -1664
2020-07-19 15:02:48 GMT 43.273983 7.758244 7,275 329 259 -1536
2020-07-19 15:02:45 GMT 43.270477 7.761266 7,350 329 256 -1408
2020-07-19 15:02:37 GMT 43.263062 7.767526 7,525 329 253 -1472
2020-07-19 15:02:34 GMT 43.260178 7.770017 7,600 329 253 -1536
2020-07-19 15:02:27 GMT 43.253128 7.776031 7,750 328 254 -1536
2020-07-19 15:02:24 GMT 43.249695 7.778959 7,875 328 255 -1472
2020-07-19 15:02:18 GMT 43.243057 7.784644 8,025 328 255 -1536
2020-07-19 15:02:14 GMT 43.239578 7.787710 8,125 328 256 -1536
2020-07-19 15:02:07 GMT 43.232254 7.794097 8,300 328 257 -1536
2020-07-19 15:01:57 GMT 43.222641 7.802465 8,575 328 258 -1728
2020-07-19 15:01:53 GMT 43.218796 7.805786 8,675 328 259 -1536
2020-07-19 15:01:47 GMT 43.212162 7.811606 8,850 328 261 -1600
2020-07-19 15:01:43 GMT 43.208157 7.815072 8,950 328 263 -1600
2020-07-19 15:01:36 GMT 43.200851 7.821371 9,150 328 264 -1664
2020-07-19 15:01:32 GMT 43.197098 7.824629 9,250 328 266 -1600
2020-07-19 15:01:27 GMT 43.191257 7.829590 9,400 329 268 -1536
2020-07-19 15:01:22 GMT 43.186604 7.833579 9,500 329 270 -1536
2020-07-19 15:01:16 GMT 43.180088 7.839072 9,675 329 273 -1664
2020-07-19 15:01:12 GMT 43.175198 7.843192 9,800 329 277 -1664
2020-07-19 15:01:07 GMT 43.169449 7.848071 9,925 329 279 -1536
2020-07-19 15:00:56 GMT 43.157959 7.857907 10,200 328 282 -1536
2020-07-19 15:00:46 GMT 43.146744 7.867616 10,475 328 281 -1600
2020-07-19 15:00:36 GMT 43.135849 7.877070 10,750 328 280 -1600
2020-07-19 15:00:26 GMT 43.124641 7.886745 11,025 328 277 -1600
2020-07-19 15:00:20 GMT 43.118637 7.891952 11,175 328 275 -1600
2020-07-19 15:00:16 GMT 43.113892 7.896162 11,300 328 273 -1600
2020-07-19 15:00:09 GMT 43.106907 7.902309 11,475 328 270 -1600
2020-07-19 15:00:06 GMT 43.103230 7.905513 11,550 328 266 -1600
2020-07-19 14:59:55 GMT 43.092613 7.914930 11,850 327 257 -1664
2020-07-19 14:59:46 GMT 43.082561 7.923889 12,000 327 251 0
2020-07-19 14:59:33 GMT 43.071480 7.933829 12,000 327 251 64
2020-07-19 14:59:25 GMT 43.063202 7.941327 12,000 327 251 0
2020-07-19 14:59:22 GMT 43.060272 7.943946 12,000 327 251 64
2020-07-19 14:59:15 GMT 43.053726 7.949758 12,000 328 251 0
2020-07-19 14:59:12 GMT 43.050385 7.952696 12,000 328 251 0
2020-07-19 14:59:05 GMT 43.043362 7.958745 12,000 330 251 0
2020-07-19 14:58:54 GMT 43.032394 7.967323 12,000 335 252 64
2020-07-19 14:58:51 GMT 43.029816 7.968881 12,000 338 252 0
2020-07-19 14:58:42 GMT 43.018250 7.973966 12,000 345 253 -64
2020-07-19 14:58:31 GMT 43.006912 7.978167 12,000 345 253 0
2020-07-19 14:58:21 GMT 42.995739 7.982287 12,000 345 252 0
2020-07-19 14:58:11 GMT 42.983963 7.986668 12,000 345 252 0
2020-07-19 14:58:01 GMT 42.972610 7.990829 12,000 345 252 0
2020-07-19 14:57:50 GMT 42.961075 7.995109 12,000 345 252 0
2020-07-19 14:57:38 GMT 42.947281 8.000205 12,000 345 252 -64
2020-07-19 14:57:33 GMT 42.940338 8.002774 12,000 345 253 -64
2020-07-19 14:57:29 GMT 42.936859 8.004051 12,000 345 253 0
2020-07-19 14:57:19 GMT 42.926285 8.007987 12,000 345 252 0
2020-07-19 14:57:08 GMT 42.913605 8.012674 12,000 345 252 0
2020-07-19 14:56:59 GMT 42.902866 8.016684 12,000 345 251 0
2020-07-19 14:56:52 GMT 42.895187 8.019496 12,000 345 251 0
2020-07-19 14:56:48 GMT 42.890625 8.021169 12,000 345 251 64
2020-07-19 14:56:43 GMT 42.884537 8.023405 12,000 345 251 64
2020-07-19 14:56:38 GMT 42.879780 8.025186 12,000 345 251 0
2020-07-19 14:56:33 GMT 42.872890 8.027671 12,000 345 251 0
2020-07-19 14:56:27 GMT 42.867004 8.029856 12,000 345 251 64
2020-07-19 14:56:17 GMT 42.856361 8.033752 12,000 345 251 0
2020-07-19 14:56:07 GMT 42.845032 8.037968 12,000 345 251 0
2020-07-19 14:56:01 GMT 42.834366 8.041928 12,000 345 252 64
2020-07-19 14:55:57 GMT 42.833679 8.042184 12,000 345 252 64
2020-07-19 14:55:46 GMT 42.821354 8.046766 12,000 345 251 0
2020-07-19 14:55:37 GMT 42.811203 8.050551 12,000 345 252 0
2020-07-19 14:55:30 GMT 42.801617 8.054128 12,000 345 252 0
2020-07-19 14:55:27 GMT 42.799896 8.054767 12,000 345 252 0
2020-07-19 14:55:17 GMT 42.788116 8.059174 12,000 345 252 0
2020-07-19 14:55:08 GMT 42.777225 8.063262 12,000 345 252 0
2020-07-19 14:54:57 GMT 42.766068 8.067398 12,000 345 252 0
2020-07-19 14:54:47 GMT 42.754715 8.071643 12,000 345 251 0
2020-07-19 14:54:37 GMT 42.742962 8.075973 12,000 346 251 -64
2020-07-19 14:54:26 GMT 42.731461 8.080132 12,000 346 251 64
2020-07-19 14:54:19 GMT 42.723408 8.082999 12,000 346 251 64
2020-07-19 14:54:16 GMT 42.720245 8.084085 12,000 346 251 0
2020-07-19 14:54:07 GMT 42.708931 8.087854 12,000 347 252 0
2020-07-19 14:53:56 GMT 42.697083 8.091618 12,000 347 251 0
2020-07-19 14:53:46 GMT 42.685730 8.095238 12,000 347 251 0
2020-07-19 14:53:40 GMT 42.677307 8.097923 12,000 347 252 0
2020-07-19 14:53:36 GMT 42.674530 8.098776 12,000 347 252 0
2020-07-19 14:53:29 GMT 42.666523 8.101523 12,000 345 251 0
2020-07-19 14:53:26 GMT 42.663033 8.102800 12,000 345 251 -64
2020-07-19 14:53:16 GMT 42.651814 8.107591 12,000 339 251 -64
2020-07-19 14:53:05 GMT 42.640366 8.114652 12,000 335 250 -64
2020-07-19 14:52:55 GMT 42.630203 8.121269 12,000 335 250 0
2020-07-19 14:52:43 GMT 42.616013 8.130522 12,000 335 250 0
2020-07-19 14:52:35 GMT 42.609310 8.134929 12,000 335 250 0
2020-07-19 14:52:24 GMT 42.597977 8.142305 12,000 335 250 64
2020-07-19 14:52:19 GMT 42.577560 8.155663 12,000 335 250 0
2020-07-19 14:52:05 GMT 42.577560 8.155663 12,000 335 250 -64
2020-07-19 14:51:51 GMT 42.562729 8.165401 12,000 335 250 0
2020-07-19 14:51:44 GMT 42.554935 8.170507 12,000 335 250 0
2020-07-19 14:51:32 GMT 42.542320 8.178746 12,000 335 250 64
2020-07-19 14:51:23 GMT 42.533981 8.184190 12,000 335 250 0
2020-07-19 14:51:13 GMT 42.523407 8.191119 12,000 335 250 -64
2020-07-19 14:51:02 GMT 42.512295 8.198420 12,000 335 250 0
2020-07-19 14:50:52 GMT 42.501354 8.205510 12,000 335 250 0
2020-07-19 14:50:43 GMT 42.491592 8.211906 12,000 335 250 -64
2020-07-19 14:50:23 GMT 42.466644 8.228198 12,000 335 251 0
2020-07-19 14:50:09 GMT 42.456482 8.234815 12,000 335 251 64
2020-07-19 14:49:59 GMT 42.445305 8.242109 12,000 335 250 64
2020-07-19 14:49:49 GMT 42.435017 8.248816 12,000 335 250 64
2020-07-19 14:49:38 GMT 42.416676 8.260761 12,000 335 251 0
2020-07-19 14:49:21 GMT 42.405807 8.267836 12,000 335 252 0
2020-07-19 14:49:12 GMT 42.395737 8.274390 12,000 335 252 64
2020-07-19 14:49:01 GMT 42.385067 8.281328 12,000 335 252 0
2020-07-19 14:48:50 GMT 42.373711 8.288737 12,000 335 252 64
2020-07-19 14:48:40 GMT 42.362457 8.296113 12,000 335 252 64
2020-07-19 14:48:30 GMT 42.352436 8.302598 12,000 335 250 0
2020-07-19 14:48:21 GMT 42.342545 8.309035 12,000 335 251 0
2020-07-19 14:48:11 GMT 42.331997 8.315948 12,000 335 251 0
2020-07-19 14:48:00 GMT 42.321293 8.322846 12,000 335 251 64
2020-07-19 14:47:51 GMT 42.310638 8.329821 12,000 335 251 0
2020-07-19 14:47:40 GMT 42.299736 8.336835 12,000 335 251 64
2020-07-19 14:47:30 GMT 42.289261 8.343617 12,000 335 252 0
2020-07-19 14:47:20 GMT 42.278687 8.350421 12,000 335 252 0
2020-07-19 14:47:10 GMT 42.267803 8.357466 12,000 335 252 0
2020-07-19 14:47:00 GMT 42.257217 8.364279 12,000 335 252 0
2020-07-19 14:46:49 GMT 42.246387 8.371199 12,000 335 252 -64
2020-07-19 14:46:39 GMT 42.235931 8.377887 12,000 335 252 0
2020-07-19 14:46:30 GMT 42.225174 8.384753 12,000 335 251 -64
2020-07-19 14:46:19 GMT 42.214314 8.391766 12,000 335 251 0
2020-07-19 14:46:09 GMT 42.203842 8.398486 12,000 335 251 -64
2020-07-19 14:45:59 GMT 42.193413 8.405180 12,000 335 250 -64
2020-07-19 14:45:45 GMT 42.179073 8.414378 12,000 335 250 -64
2020-07-19 14:45:38 GMT 42.172028 8.418898 12,000 335 249 0
2020-07-19 14:45:29 GMT 42.161224 8.425889 12,000 335 248 64
2020-07-19 14:44:58 GMT 42.130142 8.446052 12,000 335 241 0
2020-07-19 14:44:48 GMT 42.120163 8.452606 12,000 335 237 -64
2020-07-19 14:44:26 GMT 42.099014 8.466402 12,000 335 228 -64
2020-07-19 14:44:18 GMT 42.088074 8.473455 12,000 335 223 0
2020-07-19 14:44:04 GMT 42.078552 8.479635 12,000 335 215 0
2020-07-19 14:43:53 GMT 42.068802 8.485877 12,000 335 206 0
2020-07-19 14:43:43 GMT 42.060425 8.491246 12,000 335 200 64
2020-07-19 14:43:32 GMT 42.051334 8.497031 11,925 335 193 832
2020-07-19 14:43:23 GMT 42.044121 8.501629 11,800 335 192 1024
2020-07-19 14:43:13 GMT 42.036072 8.506726 11,600 335 193 1216
2020-07-19 14:42:59 GMT 42.023804 8.514592 11,400 335 196 1024
2020-07-19 14:42:49 GMT 42.015720 8.519770 11,175 335 193 704
2020-07-19 14:42:40 GMT 42.008835 8.524205 11,025 335 192 1536
2020-07-19 14:42:32 GMT 42.002243 8.528449 10,825 335 195 1408
2020-07-19 14:42:21 GMT 41.993282 8.534269 10,600 335 196 1152
2020-07-19 14:42:11 GMT 41.984905 8.539698 10,400 335 196 1280
2020-07-19 14:41:12 GMT 41.937469 8.570147 9,325 335 194 1280
2020-07-19 14:41:06 GMT 41.932526 8.573393 9,150 335 194 1152
2020-07-19 14:40:58 GMT 41.926109 8.577512 9,025 335 192 1088
2020-07-19 14:40:42 GMT 41.912521 8.586128 8,725 335 189 1152
2020-07-19 14:40:39 GMT 41.910934 8.587221 8,675 335 189 1216
2020-07-19 14:40:24 GMT 41.899384 8.594679 7,900 334 187 1344
2020-07-19 14:40:18 GMT 41.894806 8.597738 8,250 334 188 1344

Making use of Plane Finder data

You are free to use the raw flight data, aircraft information and images provided in this report for your own purposes provided the data is correctly attributed to Plane Finder. We ask that you please credit Plane Finder and link to planefinder.net in close proximity to the content.

Optionally one of the following logos (no smaller then 150x24px) can be used and must link to planefinder.net

Embedding the Plane Finder map

You are welcome to embed the Plane Finder playback map on your website to offer visitors a more interactive experience. We suggest using the following HTML code:

<iframe src="//planefinder.net/data/report/XK104-F-GRPI-7700-squawk-2020-07-19/map" width="800" height="600" seamless="seamless"></iframe>

Where our data comes from

Plane Finder has a global network of data feeds and antenna radars that receive data broadcast directly from aircraft. The primary technologies used are ADS-B and MLAT. We also show feeds from the FAA and a FLARM glider feed.

Click here to find out more about the Plane Finder network.

How we collect our data